createdAt,value
2022-11-16T00:00:49.694Z,0
2022-11-16T00:01:49.860Z,0
2022-11-16T00:02:50.132Z,0
2022-11-16T00:03:50.262Z,0
2022-11-16T00:04:50.395Z,0
2022-11-16T00:05:50.525Z,0
2022-11-16T00:06:50.725Z,0
2022-11-16T00:07:51.014Z,0
2022-11-16T00:08:51.161Z,0
2022-11-16T00:09:51.299Z,0
2022-11-16T00:10:51.447Z,0
2022-11-16T00:11:51.580Z,0
2022-11-16T00:12:51.732Z,0
2022-11-16T00:13:51.868Z,0
2022-11-16T00:14:52.001Z,0
2022-11-16T00:15:52.166Z,0
2022-11-16T00:16:52.302Z,0
2022-11-16T00:17:52.441Z,0
2022-11-16T00:18:52.576Z,0
2022-11-16T00:19:52.706Z,0
2022-11-16T00:20:52.853Z,0
2022-11-16T00:21:52.990Z,0
2022-11-16T00:22:53.137Z,0
2022-11-16T00:23:53.274Z,0
2022-11-16T00:24:53.406Z,0
2022-11-16T00:25:53.547Z,0
2022-11-16T00:26:53.687Z,0
2022-11-16T00:27:53.827Z,0
2022-11-16T00:28:53.963Z,0
2022-11-16T00:29:54.105Z,0
2022-11-16T00:30:54.239Z,0
2022-11-16T00:31:54.374Z,0
2022-11-16T00:32:54.527Z,0
2022-11-16T00:33:54.664Z,0
2022-11-16T00:34:54.826Z,0
2022-11-16T00:35:54.985Z,0
2022-11-16T00:36:55.136Z,0
2022-11-16T00:37:55.273Z,0
2022-11-16T00:38:55.409Z,0
2022-11-16T00:39:55.551Z,0
2022-11-16T00:40:55.690Z,0
2022-11-16T00:41:55.837Z,0
2022-11-16T00:42:55.972Z,0
2022-11-16T00:43:56.103Z,0
2022-11-16T00:44:56.241Z,0
2022-11-16T00:45:56.385Z,0
2022-11-16T00:46:56.523Z,0
2022-11-16T00:48:00.406Z,0
2022-11-16T00:49:01.024Z,0
2022-11-16T00:50:01.157Z,0
2022-11-16T00:51:01.307Z,0
2022-11-16T00:52:01.458Z,0
2022-11-16T00:53:01.590Z,0
2022-11-16T00:54:01.720Z,0
2022-11-16T00:55:01.853Z,0
2022-11-16T00:56:01.993Z,0
2022-11-16T00:57:02.123Z,0
2022-11-16T00:58:02.257Z,0
2022-11-16T00:59:02.398Z,0
2022-11-16T01:00:02.536Z,0
2022-11-16T01:01:02.744Z,0
2022-11-16T01:02:03.089Z,0
2022-11-16T01:03:03.223Z,0
2022-11-16T01:04:03.384Z,0
2022-11-16T01:05:03.536Z,0
2022-11-16T01:06:03.703Z,0
2022-11-16T01:07:03.897Z,0
2022-11-16T01:08:04.182Z,0
2022-11-16T01:09:04.320Z,0
2022-11-16T01:10:04.457Z,0
2022-11-16T01:11:04.597Z,0
2022-11-16T01:12:04.735Z,0
2022-11-16T01:13:04.870Z,0
2022-11-16T01:14:05.005Z,0
2022-11-16T01:15:05.162Z,0
2022-11-16T01:16:05.295Z,0
2022-11-16T01:17:05.429Z,0
2022-11-16T01:18:05.591Z,0
2022-11-16T01:19:05.734Z,0
2022-11-16T01:20:05.877Z,0
2022-11-16T01:21:06.025Z,0
2022-11-16T01:22:06.156Z,0
2022-11-16T01:23:06.291Z,0
2022-11-16T01:24:06.429Z,0
2022-11-16T01:25:06.566Z,0
2022-11-16T01:26:06.708Z,0
2022-11-16T01:27:06.854Z,0
2022-11-16T01:28:06.997Z,0
2022-11-16T01:29:07.137Z,0
2022-11-16T01:30:07.273Z,0
2022-11-16T01:31:07.422Z,0
2022-11-16T01:32:07.551Z,0
2022-11-16T01:33:07.684Z,0
2022-11-16T01:34:07.838Z,0
2022-11-16T01:35:07.978Z,0
2022-11-16T01:36:08.122Z,0
2022-11-16T01:37:08.260Z,0
2022-11-16T01:38:08.398Z,0
2022-11-16T01:39:08.535Z,0
2022-11-16T01:40:08.672Z,0
2022-11-16T01:41:08.810Z,0
2022-11-16T01:42:08.941Z,0
2022-11-16T01:43:09.082Z,0
2022-11-16T01:44:09.220Z,0
2022-11-16T01:45:09.356Z,0
2022-11-16T01:46:09.491Z,0
2022-11-16T01:47:09.642Z,0
2022-11-16T01:48:09.821Z,0
2022-11-16T01:49:10.145Z,0
2022-11-16T01:50:10.278Z,0
2022-11-16T01:51:10.415Z,0
2022-11-16T01:52:10.558Z,0
2022-11-16T01:53:10.698Z,0
2022-11-16T01:54:10.832Z,0
2022-11-16T01:55:10.969Z,0
2022-11-16T01:56:11.122Z,0
2022-11-16T01:57:11.258Z,0
2022-11-16T01:58:11.405Z,0
2022-11-16T01:59:11.540Z,0
2022-11-16T02:00:11.680Z,0
2022-11-16T02:01:11.910Z,0
2022-11-16T02:02:12.328Z,0
2022-11-16T02:03:12.464Z,0
2022-11-16T02:04:12.596Z,0
2022-11-16T02:05:12.734Z,0
2022-11-16T02:06:12.868Z,0
2022-11-16T02:07:13.079Z,0
2022-11-16T02:08:13.371Z,0
2022-11-16T02:09:13.505Z,0
2022-11-16T02:10:13.642Z,0
2022-11-16T02:11:13.782Z,0
2022-11-16T02:12:13.922Z,0
2022-11-16T02:13:14.062Z,0
2022-11-16T02:14:14.231Z,0
2022-11-16T02:15:14.372Z,0
2022-11-16T02:16:14.503Z,0
2022-11-16T02:17:14.648Z,0
2022-11-16T02:18:14.775Z,0
2022-11-16T02:19:14.908Z,0
2022-11-16T02:20:15.039Z,0
2022-11-16T02:21:15.174Z,0
2022-11-16T02:22:15.312Z,0
2022-11-16T02:23:15.456Z,0
2022-11-16T02:24:15.596Z,0
2022-11-16T02:25:15.738Z,0
2022-11-16T02:26:15.890Z,0
2022-11-16T02:27:16.025Z,0
2022-11-16T02:28:16.170Z,0
2022-11-16T02:29:16.305Z,0
2022-11-16T02:30:16.457Z,0
2022-11-16T02:31:16.596Z,0
2022-11-16T02:32:16.738Z,0
2022-11-16T02:33:16.879Z,0
2022-11-16T02:34:17.013Z,0
2022-11-16T02:35:17.153Z,0
2022-11-16T02:36:17.297Z,0
2022-11-16T02:37:17.430Z,0
2022-11-16T02:38:17.570Z,0
2022-11-16T02:39:17.709Z,0
2022-11-16T02:40:17.841Z,0
2022-11-16T02:41:17.974Z,0
2022-11-16T02:42:18.110Z,0
2022-11-16T02:43:18.246Z,0
2022-11-16T02:44:18.386Z,0
2022-11-16T02:45:18.519Z,0
2022-11-16T02:46:18.656Z,0
2022-11-16T02:47:18.792Z,0
2022-11-16T02:48:18.924Z,0
2022-11-16T02:49:19.060Z,0
2022-11-16T02:50:19.194Z,0
2022-11-16T02:51:19.327Z,0
2022-11-16T02:52:19.462Z,0
2022-11-16T02:53:19.612Z,0
2022-11-16T02:54:19.749Z,0
2022-11-16T02:55:19.885Z,0
2022-11-16T02:56:20.036Z,0
2022-11-16T02:57:20.261Z,0
2022-11-16T02:58:20.399Z,0
2022-11-16T02:59:20.539Z,0
2022-11-16T03:00:20.679Z,0
2022-11-16T03:01:20.877Z,0
2022-11-16T03:02:21.170Z,0
2022-11-16T03:03:21.330Z,0
2022-11-16T03:04:21.474Z,0
2022-11-16T03:05:21.617Z,0
2022-11-16T03:06:21.754Z,0
2022-11-16T03:07:21.915Z,0
2022-11-16T03:08:22.176Z,0
2022-11-16T03:09:22.312Z,0
2022-11-16T03:10:22.447Z,0
2022-11-16T03:11:22.584Z,0
2022-11-16T03:12:22.713Z,0
2022-11-16T03:13:22.846Z,0
2022-11-16T03:14:22.975Z,0
2022-11-16T03:15:23.138Z,0
2022-11-16T03:16:23.272Z,0
2022-11-16T03:17:23.404Z,0
2022-11-16T03:18:23.536Z,0
2022-11-16T03:19:23.676Z,0
2022-11-16T03:20:23.815Z,0
2022-11-16T03:21:23.942Z,0
2022-11-16T03:22:24.073Z,0
2022-11-16T03:23:24.220Z,0
2022-11-16T03:24:24.357Z,0
2022-11-16T03:25:24.492Z,0
2022-11-16T03:26:24.674Z,0
2022-11-16T03:27:24.821Z,0
2022-11-16T03:28:24.951Z,0
2022-11-16T03:29:25.083Z,0
2022-11-16T03:30:25.222Z,0
2022-11-16T03:31:25.362Z,0
2022-11-16T03:32:25.494Z,0
2022-11-16T03:33:25.756Z,0
2022-11-16T03:34:25.890Z,0
2022-11-16T03:35:26.027Z,0
2022-11-16T03:36:26.170Z,0
2022-11-16T03:37:26.311Z,0
2022-11-16T03:38:26.440Z,0
2022-11-16T03:39:26.582Z,0
2022-11-16T03:40:26.730Z,0
2022-11-16T03:41:26.869Z,0
2022-11-16T03:42:27.004Z,0
2022-11-16T03:43:27.145Z,0
2022-11-16T03:44:27.281Z,0
2022-11-16T03:45:27.420Z,0
2022-11-16T03:46:27.563Z,0
2022-11-16T03:47:27.696Z,0
2022-11-16T03:48:27.837Z,0
2022-11-16T03:49:27.972Z,0
2022-11-16T03:50:28.107Z,0
2022-11-16T03:51:28.245Z,0
2022-11-16T03:52:28.382Z,0
2022-11-16T03:53:28.517Z,0
2022-11-16T03:54:28.650Z,0
2022-11-16T03:55:28.792Z,0
2022-11-16T03:56:28.936Z,0
2022-11-16T03:57:29.075Z,0
2022-11-16T03:58:29.217Z,0
2022-11-16T03:59:29.355Z,0
2022-11-16T04:00:29.545Z,0
2022-11-16T04:01:29.983Z,0
2022-11-16T04:02:30.232Z,0
2022-11-16T04:03:30.368Z,0
2022-11-16T04:04:31.049Z,0
2022-11-16T04:05:31.188Z,0
2022-11-16T04:06:31.332Z,0
2022-11-16T04:07:32.049Z,0
2022-11-16T04:08:32.768Z,0
2022-11-16T04:09:33.796Z,0
2022-11-16T04:10:33.930Z,0
2022-11-16T04:11:34.064Z,0
2022-11-16T04:12:34.200Z,0
2022-11-16T04:13:34.336Z,0
2022-11-16T04:14:34.479Z,0
2022-11-16T04:15:34.612Z,0
2022-11-16T04:16:34.744Z,0
2022-11-16T04:17:34.875Z,0
2022-11-16T04:18:35.201Z,0
2022-11-16T04:19:37.019Z,0
2022-11-16T04:20:37.165Z,0
2022-11-16T04:21:37.303Z,0
2022-11-16T04:22:37.440Z,0
2022-11-16T04:23:37.577Z,0
2022-11-16T04:24:37.711Z,0
2022-11-16T04:25:37.843Z,0
2022-11-16T04:26:37.973Z,0
2022-11-16T04:27:38.112Z,0
2022-11-16T04:28:38.441Z,0
2022-11-16T04:29:38.766Z,0
2022-11-16T04:30:38.902Z,0
2022-11-16T04:31:39.042Z,0
2022-11-16T04:32:39.175Z,0
2022-11-16T04:33:39.308Z,0
2022-11-16T04:34:39.444Z,0
2022-11-16T04:35:39.578Z,0
2022-11-16T04:36:39.712Z,0
2022-11-16T04:37:39.846Z,0
2022-11-16T04:38:39.978Z,0
2022-11-16T04:39:40.117Z,0
2022-11-16T04:40:40.257Z,0
2022-11-16T04:41:40.397Z,0
2022-11-16T04:42:40.540Z,0
2022-11-16T04:43:40.680Z,0
2022-11-16T04:44:40.812Z,0
2022-11-16T04:45:40.949Z,0
2022-11-16T04:46:41.088Z,0
2022-11-16T04:47:41.227Z,0
2022-11-16T04:48:41.361Z,0
2022-11-16T04:49:41.504Z,0
2022-11-16T04:50:41.644Z,0
2022-11-16T04:51:41.791Z,0
2022-11-16T04:52:41.927Z,0
2022-11-16T04:53:42.061Z,0
2022-11-16T04:54:42.201Z,0
2022-11-16T04:55:42.349Z,0
2022-11-16T04:56:42.491Z,0
2022-11-16T04:57:42.627Z,0
2022-11-16T04:58:42.766Z,0
2022-11-16T04:59:42.902Z,0
2022-11-16T05:00:43.052Z,0
2022-11-16T05:01:43.212Z,0
2022-11-16T05:02:43.576Z,0
2022-11-16T05:03:43.713Z,0
2022-11-16T05:04:43.851Z,0
2022-11-16T05:05:43.993Z,0
2022-11-16T05:06:44.134Z,0
2022-11-16T05:07:44.269Z,0
2022-11-16T05:08:44.402Z,0
2022-11-16T05:09:44.541Z,0
2022-11-16T05:10:44.681Z,0
2022-11-16T05:11:44.820Z,0
2022-11-16T05:12:44.952Z,0
2022-11-16T05:13:45.096Z,0
2022-11-16T05:14:45.228Z,0
2022-11-16T05:15:45.368Z,0
2022-11-16T05:16:45.508Z,0
2022-11-16T05:17:45.657Z,0
2022-11-16T05:18:45.802Z,0
2022-11-16T05:19:45.940Z,0
2022-11-16T05:20:46.075Z,0
2022-11-16T05:21:46.212Z,0
2022-11-16T05:22:46.346Z,0
2022-11-16T05:23:46.486Z,0
2022-11-16T05:24:46.622Z,0
2022-11-16T05:25:46.759Z,0
2022-11-16T05:26:46.897Z,0
2022-11-16T05:27:47.034Z,0
2022-11-16T05:28:47.169Z,0
2022-11-16T05:29:47.310Z,0
2022-11-16T05:30:47.464Z,0
2022-11-16T05:31:47.609Z,0
2022-11-16T05:32:47.757Z,0
2022-11-16T05:33:47.896Z,0
2022-11-16T05:34:48.033Z,0
2022-11-16T05:35:48.164Z,0
2022-11-16T05:36:48.373Z,0
2022-11-16T05:37:48.507Z,0
2022-11-16T05:38:50.706Z,0
2022-11-16T05:39:56.600Z,0
2022-11-16T05:40:56.735Z,0
2022-11-16T05:41:56.876Z,0
2022-11-16T05:42:57.018Z,0
2022-11-16T05:43:57.151Z,0
2022-11-16T05:44:57.291Z,0
2022-11-16T05:45:57.449Z,0
2022-11-16T05:46:57.589Z,0
2022-11-16T05:47:57.742Z,0
2022-11-16T05:48:57.888Z,0
2022-11-16T05:49:58.029Z,0
2022-11-16T05:50:58.165Z,0
2022-11-16T05:51:58.302Z,0
2022-11-16T05:52:58.437Z,0
2022-11-16T05:53:58.573Z,0
2022-11-16T05:54:58.711Z,0
2022-11-16T05:55:58.880Z,0
2022-11-16T05:56:59.307Z,0
2022-11-16T05:57:59.444Z,0
2022-11-16T05:58:59.568Z,0
2022-11-16T05:59:59.698Z,0
2022-11-16T06:00:59.831Z,0
2022-11-16T06:01:59.974Z,0
2022-11-16T06:03:00.197Z,0
2022-11-16T06:04:00.514Z,0
2022-11-16T06:21:21.191Z,0
2022-11-16T06:22:21.318Z,21
2022-11-16T06:23:21.452Z,24
2022-11-16T06:24:21.600Z,27
2022-11-16T06:25:21.731Z,30
2022-11-16T06:26:21.872Z,33
2022-11-16T06:27:22.001Z,37
2022-11-16T06:28:22.133Z,41
2022-11-16T06:29:22.264Z,46
2022-11-16T06:30:22.395Z,51
2022-11-16T06:31:22.523Z,51
2022-11-16T06:32:22.655Z,63
2022-11-16T06:33:22.788Z,70
2022-11-16T06:34:22.925Z,77
2022-11-16T06:35:23.055Z,86.96
2022-11-16T06:36:23.206Z,96.96
2022-11-16T06:37:23.343Z,110
2022-11-16T06:38:23.474Z,130
2022-11-16T06:39:23.611Z,150
2022-11-16T06:40:23.740Z,169.92
2022-11-16T06:41:23.874Z,189.92
2022-11-16T06:42:24.007Z,209.92
2022-11-16T06:43:24.137Z,209.92
2022-11-16T06:44:24.269Z,209.92
2022-11-16T06:45:24.404Z,209.92
2022-11-16T06:46:24.530Z,209.92
2022-11-16T06:47:24.752Z,209.92
2022-11-16T06:48:24.889Z,209.92
2022-11-16T06:49:25.018Z,209.92
2022-11-16T06:50:25.281Z,240
2022-11-16T06:51:25.423Z,240
2022-11-16T06:52:25.554Z,269.92
2022-11-16T06:53:29.127Z,329.92
2022-11-16T06:54:29.869Z,409.92
2022-11-16T06:55:30.000Z,459.84
2022-11-16T06:56:30.145Z,509.76
2022-11-16T06:57:30.281Z,569.92
2022-11-16T06:58:30.483Z,569.92
2022-11-16T07:00:02.919Z,569.92
2022-11-16T07:01:03.069Z,669.44
2022-11-16T07:02:03.265Z,669.44
2022-11-16T07:03:03.605Z,709.76
2022-11-16T07:04:03.747Z,769.92
2022-11-16T07:05:04.203Z,769.92
2022-11-16T07:06:04.454Z,849.92
2022-11-16T07:07:04.628Z,939.52
2022-11-16T07:08:04.917Z,939.52
2022-11-16T07:09:05.046Z,1040
2022-11-16T07:10:05.177Z,1040
2022-11-16T07:11:05.310Z,1040
2022-11-16T07:12:05.447Z,1040
2022-11-16T07:13:05.579Z,1040
2022-11-16T07:14:05.717Z,1159.68
2022-11-16T07:15:05.850Z,1159.68
2022-11-16T07:16:05.991Z,1159.68
2022-11-16T07:17:09.428Z,1159.68
2022-11-16T07:18:10.101Z,1139.84
2022-11-16T07:19:10.239Z,1040
2022-11-16T07:20:10.361Z,1040
2022-11-16T07:21:10.494Z,1040
2022-11-16T07:22:10.637Z,929.92
2022-11-16T07:23:14.091Z,929.92
2022-11-16T07:24:14.561Z,819.84
2022-11-16T07:25:14.691Z,819.84
2022-11-16T07:26:14.825Z,729.6
2022-11-16T07:27:14.961Z,729.6
2022-11-16T07:28:15.087Z,729.6
2022-11-16T07:29:15.214Z,649.92
2022-11-16T07:30:15.343Z,649.92
2022-11-16T07:31:15.486Z,579.84
2022-11-16T07:32:15.626Z,579.84
2022-11-16T07:33:15.760Z,579.84
2022-11-16T07:34:15.897Z,520
2022-11-16T07:35:16.025Z,520
2022-11-16T07:36:16.159Z,520
2022-11-16T07:37:16.348Z,520
2022-11-16T07:38:18.080Z,520
2022-11-16T07:39:18.547Z,520
2022-11-16T07:40:18.678Z,520
2022-11-16T07:41:18.811Z,520
2022-11-16T07:42:18.946Z,520
2022-11-16T07:43:19.081Z,520
2022-11-16T07:44:19.264Z,549.76
2022-11-16T07:45:19.401Z,549.76
2022-11-16T07:46:45.114Z,549.76
2022-11-16T07:47:48.895Z,609.92
2022-11-16T07:48:49.025Z,679.68
2022-11-16T07:49:49.157Z,749.44
2022-11-16T07:50:49.290Z,849.92
2022-11-16T07:51:49.417Z,1059.84
2022-11-16T07:52:49.550Z,1299.84
2022-11-16T07:53:49.684Z,1440
2022-11-16T07:54:49.819Z,2359.04
2022-11-16T07:55:49.965Z,2599.68
2022-11-16T07:56:50.093Z,4218.88
2022-11-16T07:57:53.218Z,3737.6
2022-11-16T07:58:53.890Z,3358.72
2022-11-16T07:59:54.051Z,3358.72
2022-11-16T08:00:54.200Z,2997.76
2022-11-16T08:01:54.360Z,2997.76
2022-11-16T08:02:54.645Z,2698.24
2022-11-16T08:03:54.780Z,2698.24
2022-11-16T08:04:54.931Z,2698.24
2022-11-16T08:05:55.064Z,2698.24
2022-11-16T08:06:55.289Z,2698.24
2022-11-16T08:07:55.659Z,2698.24
2022-11-16T08:08:58.494Z,2698.24
2022-11-16T08:09:59.503Z,2400
2022-11-16T08:10:59.861Z,2159.36
2022-11-16T08:12:00.000Z,1920
2022-11-16T08:13:00.185Z,1719.04
2022-11-16T08:14:00.328Z,1719.04
2022-11-16T08:15:00.469Z,1719.04
2022-11-16T08:16:00.598Z,1539.84
2022-11-16T08:17:00.739Z,1539.84
2022-11-16T08:18:00.884Z,1539.84
2022-11-16T08:19:01.024Z,1539.84
2022-11-16T08:20:01.186Z,1699.84
2022-11-16T08:21:01.322Z,1699.84
2022-11-16T08:22:01.484Z,1879.04
2022-11-16T08:23:01.637Z,2119.68
2022-11-16T08:24:01.806Z,2119.68
2022-11-16T08:25:01.989Z,2339.84
2022-11-16T08:26:02.132Z,2599.68
2022-11-16T08:27:02.268Z,2918.4
2022-11-16T08:28:02.420Z,3317.76
2022-11-16T08:29:02.564Z,3658.24
2022-11-16T08:30:02.705Z,4057.6
2022-11-16T08:31:02.841Z,8919.04
2022-11-16T08:32:02.970Z,13393.92
2022-11-16T08:33:03.137Z,19998.72
2022-11-16T08:34:03.275Z,22179.84
2022-11-16T08:35:03.410Z,21790.72
2022-11-16T08:36:03.554Z,21790.72
2022-11-16T08:37:03.705Z,21790.72
2022-11-16T08:38:03.844Z,24596.48
2022-11-16T08:39:03.992Z,27381.76
2022-11-16T08:40:04.260Z,27381.76
2022-11-16T08:41:04.392Z,27381.76
2022-11-16T08:42:04.528Z,30187.52
2022-11-16T08:43:04.672Z,30187.52
2022-11-16T08:44:04.812Z,33587.2
2022-11-16T08:45:04.963Z,33587.2
2022-11-16T08:46:05.110Z,33587.2
2022-11-16T08:47:05.259Z,33587.2
2022-11-16T08:48:05.409Z,33587.2
2022-11-16T08:49:05.542Z,33587.2
2022-11-16T08:50:05.679Z,33587.2
2022-11-16T08:51:21.442Z,36986.88
2022-11-16T08:52:21.707Z,37191.68
2022-11-16T08:53:21.835Z,32993.28
2022-11-16T08:54:21.975Z,28794.88
2022-11-16T08:55:22.117Z,21585.92
2022-11-16T08:56:22.247Z,14397.44
2022-11-16T08:57:22.388Z,10792.96
2022-11-16T08:58:22.515Z,9579.52
2022-11-16T08:59:22.643Z,9579.52
2022-11-16T09:00:22.769Z,16394.24
2022-11-16T09:01:22.939Z,14592
2022-11-16T09:02:23.334Z,11397.12
2022-11-16T09:03:23.466Z,8775.68
2022-11-16T09:04:23.595Z,6599.68
2022-11-16T09:05:23.721Z,5857.28
2022-11-16T09:06:23.869Z,5237.76
2022-11-16T09:07:24.064Z,10598.4
2022-11-16T09:08:24.338Z,19599.36
2022-11-16T09:09:24.479Z,23982.08
2022-11-16T09:10:24.633Z,26398.72
2022-11-16T09:11:24.979Z,29593.6
2022-11-16T09:12:25.131Z,32788.48
2022-11-16T09:13:25.268Z,32788.48
2022-11-16T09:14:25.417Z,32788.48
2022-11-16T09:15:25.545Z,32788.48
2022-11-16T09:16:25.670Z,32788.48
2022-11-16T09:17:25.802Z,32788.48
2022-11-16T09:18:25.937Z,32788.48
2022-11-16T09:19:26.069Z,32788.48
2022-11-16T09:20:26.199Z,32788.48
2022-11-16T09:21:26.338Z,32788.48
2022-11-16T09:22:26.470Z,35799.04
2022-11-16T09:23:26.624Z,35799.04
2022-11-16T09:24:26.774Z,35799.04
2022-11-16T09:25:26.921Z,35799.04
2022-11-16T09:26:27.124Z,35799.04
2022-11-16T09:27:27.565Z,35799.04
2022-11-16T09:28:27.772Z,35799.04
2022-11-16T09:29:28.208Z,35799.04
2022-11-16T09:30:28.358Z,35799.04
2022-11-16T09:31:28.515Z,35799.04
2022-11-16T09:32:28.676Z,37396.48
2022-11-16T09:33:28.834Z,37396.48
2022-11-16T09:34:28.974Z,37396.48
2022-11-16T09:35:29.119Z,37396.48
2022-11-16T09:36:29.274Z,37396.48
2022-11-16T09:37:29.415Z,37396.48
2022-11-16T09:38:40.471Z,37396.48
2022-11-16T09:40:31.190Z,37990.4
2022-11-16T09:41:31.334Z,37990.4
2022-11-16T09:42:31.592Z,37990.4
2022-11-16T09:43:32.090Z,37990.4
2022-11-16T09:44:33.266Z,37990.4
2022-11-16T09:45:33.446Z,37990.4
2022-11-16T09:46:33.665Z,37990.4
2022-11-16T09:47:33.796Z,37990.4
2022-11-16T09:48:33.937Z,37990.4
2022-11-16T09:49:34.069Z,37990.4
2022-11-16T09:50:34.209Z,37990.4
2022-11-16T09:51:34.364Z,37990.4
2022-11-16T09:52:34.512Z,40591.36
2022-11-16T09:53:34.970Z,40591.36
2022-11-16T09:54:36.334Z,40591.36
2022-11-16T09:55:36.476Z,40591.36
2022-11-16T09:56:36.608Z,40591.36
2022-11-16T09:57:36.747Z,40591.36
2022-11-16T09:58:37.163Z,40591.36
2022-11-16T09:59:38.778Z,40591.36
2022-11-16T10:00:39.034Z,40591.36
2022-11-16T10:01:39.311Z,40591.36
2022-11-16T10:02:39.490Z,39792.64
2022-11-16T10:03:39.838Z,39792.64
2022-11-16T10:04:39.981Z,39792.64
2022-11-16T10:05:40.119Z,39792.64
2022-11-16T10:06:40.258Z,39792.64
2022-11-16T10:07:40.388Z,39792.64
2022-11-16T10:08:40.521Z,39792.64
2022-11-16T10:09:40.653Z,39792.64
2022-11-16T10:10:40.834Z,39792.64
2022-11-16T10:11:40.982Z,39792.64
2022-11-16T10:12:41.110Z,40591.36
2022-11-16T10:13:41.248Z,40591.36
2022-11-16T10:14:41.376Z,40591.36
2022-11-16T10:15:41.506Z,40591.36
2022-11-16T10:16:41.647Z,40591.36
2022-11-16T10:17:41.792Z,40591.36
2022-11-16T10:18:41.923Z,40591.36
2022-11-16T10:19:42.057Z,40591.36
2022-11-16T10:20:42.207Z,40591.36
2022-11-16T10:21:42.345Z,40591.36
2022-11-16T10:22:42.477Z,41984
2022-11-16T10:23:42.608Z,41984
2022-11-16T10:24:42.741Z,41984
2022-11-16T10:25:42.880Z,41984
2022-11-16T10:26:43.018Z,41984
2022-11-16T10:27:43.156Z,41984
2022-11-16T10:28:43.297Z,41984
2022-11-16T10:29:43.429Z,41984
2022-11-16T10:30:43.575Z,41984
2022-11-16T10:31:43.713Z,41984
2022-11-16T10:32:43.862Z,42762.24
2022-11-16T10:33:44.010Z,42762.24
2022-11-16T10:34:44.175Z,42762.24
2022-11-16T10:35:44.321Z,42762.24
2022-11-16T10:36:44.470Z,42762.24
2022-11-16T10:37:44.748Z,42762.24
2022-11-16T10:38:44.880Z,42762.24
2022-11-16T10:39:45.022Z,42762.24
2022-11-16T10:40:45.160Z,42762.24
2022-11-16T10:41:45.292Z,42762.24
2022-11-16T10:42:45.422Z,44974.08
2022-11-16T10:43:45.556Z,44974.08
2022-11-16T10:44:45.689Z,49561.6
2022-11-16T10:45:45.821Z,55787.52
2022-11-16T10:46:45.972Z,67584
2022-11-16T10:47:46.124Z,67584
2022-11-16T10:48:46.269Z,67584
2022-11-16T10:49:46.411Z,67584
2022-11-16T10:50:46.563Z,67584
2022-11-16T10:51:46.709Z,67584
2022-11-16T10:52:46.849Z,67584
2022-11-16T10:53:46.982Z,67584
2022-11-16T10:54:47.134Z,67584
2022-11-16T10:55:47.264Z,67584
2022-11-16T10:56:47.497Z,64962.56
2022-11-16T10:57:47.635Z,64962.56
2022-11-16T10:58:47.770Z,64962.56
2022-11-16T10:59:47.965Z,64962.56
2022-11-16T11:00:48.191Z,64962.56
2022-11-16T11:01:48.516Z,64962.56
2022-11-16T11:02:48.650Z,64962.56
2022-11-16T11:03:48.787Z,64962.56
2022-11-16T11:04:48.925Z,72171.52
2022-11-16T11:05:49.060Z,72171.52
2022-11-16T11:06:49.250Z,72171.52
2022-11-16T11:07:49.596Z,72171.52
2022-11-16T11:08:49.732Z,72171.52
2022-11-16T11:09:49.868Z,72171.52
2022-11-16T11:10:50.004Z,63569.92
2022-11-16T11:11:50.134Z,41390.08
2022-11-16T11:12:50.271Z,37396.48
2022-11-16T11:13:50.402Z,47185.92
2022-11-16T11:14:50.541Z,52797.44
2022-11-16T11:15:50.688Z,58368
2022-11-16T11:16:50.825Z,64593.92
2022-11-16T11:17:50.960Z,48578.56
2022-11-16T11:18:51.091Z,31784.96
2022-11-16T11:19:51.223Z,45178.88
2022-11-16T11:20:51.370Z,51200
2022-11-16T11:21:51.504Z,43581.44
2022-11-16T11:22:51.652Z,28385.28
2022-11-16T11:23:51.858Z,19599.36
2022-11-16T11:24:52.173Z,15390.72
2022-11-16T11:25:52.317Z,11397.12
2022-11-16T11:26:52.454Z,8995.84
2022-11-16T11:27:52.594Z,10792.96
2022-11-16T11:28:52.735Z,9359.36
2022-11-16T11:29:52.871Z,21196.8
2022-11-16T11:30:53.616Z,18995.2
2022-11-16T11:31:53.751Z,16998.4
2022-11-16T11:32:53.883Z,19599.36
2022-11-16T11:33:54.017Z,34590.72
2022-11-16T11:34:54.154Z,45998.08
2022-11-16T11:35:54.288Z,57384.96
2022-11-16T11:36:54.429Z,51363.84
2022-11-16T11:37:54.559Z,38584.32
2022-11-16T11:38:54.734Z,25784.32
2022-11-16T11:39:55.030Z,23183.36
2022-11-16T11:40:55.169Z,16199.68
2022-11-16T11:41:55.306Z,10997.76
2022-11-16T11:42:55.432Z,8135.68
2022-11-16T11:43:55.569Z,6338.56
2022-11-16T11:44:55.700Z,6338.56
2022-11-16T11:45:55.836Z,10792.96
2022-11-16T11:47:35.540Z,8555.52
2022-11-16T11:49:00.038Z,6338.56
2022-11-16T11:50:00.233Z,5959.68
2022-11-16T11:51:00.393Z,5959.68
2022-11-16T11:52:00.531Z,7398.4
2022-11-16T11:53:00.699Z,14397.44
2022-11-16T11:54:00.832Z,16199.68
2022-11-16T11:55:00.969Z,16199.68
2022-11-16T11:56:01.116Z,20398.08
2022-11-16T11:57:01.280Z,39198.72
2022-11-16T11:58:01.408Z,48373.76
2022-11-16T11:59:01.544Z,48373.76
2022-11-16T12:00:01.690Z,33198.08
2022-11-16T12:01:01.829Z,29184
2022-11-16T12:02:01.975Z,29184
2022-11-16T12:03:02.218Z,38195.2
2022-11-16T12:04:02.879Z,51773.44
2022-11-16T12:05:03.029Z,56975.36
2022-11-16T12:06:03.245Z,56975.36
2022-11-16T12:07:03.432Z,41185.28
2022-11-16T12:08:03.819Z,27197.44
2022-11-16T12:09:03.968Z,26193.92
2022-11-16T12:10:04.124Z,41185.28
2022-11-16T12:11:04.274Z,39587.84
2022-11-16T12:12:04.432Z,26193.92
2022-11-16T12:13:04.625Z,18196.48
2022-11-16T12:14:04.769Z,14192.64
2022-11-16T12:15:04.903Z,10792.96
2022-11-16T12:16:05.033Z,9579.52
2022-11-16T12:17:05.178Z,7377.92
2022-11-16T12:18:05.316Z,6615.04
2022-11-16T12:19:05.451Z,5237.76
2022-11-16T12:20:05.623Z,5237.76
2022-11-16T12:21:05.965Z,5237.76
2022-11-16T12:22:06.091Z,5775.36
2022-11-16T12:23:06.226Z,7157.76
2022-11-16T12:24:06.359Z,10199.04
2022-11-16T12:25:06.487Z,11991.04
2022-11-16T12:26:06.625Z,15994.88
2022-11-16T12:27:06.758Z,20992
2022-11-16T12:28:06.892Z,23183.36
2022-11-16T12:29:07.030Z,23183.36
2022-11-16T12:30:07.181Z,17592.32
2022-11-16T12:31:07.318Z,13793.28
2022-11-16T12:32:07.454Z,10792.96
2022-11-16T12:33:07.589Z,8739.84
2022-11-16T12:34:07.724Z,7777.28
2022-11-16T12:35:07.856Z,6999.04
2022-11-16T12:36:08.001Z,6297.6
2022-11-16T12:37:08.150Z,7157.76
2022-11-16T12:38:08.295Z,7157.76
2022-11-16T12:39:08.426Z,6379.52
2022-11-16T12:40:08.556Z,5739.52
2022-11-16T12:41:08.681Z,5739.52
2022-11-16T12:42:08.813Z,6635.52
2022-11-16T12:43:08.953Z,9559.04
2022-11-16T12:44:09.086Z,16199.68
2022-11-16T12:45:09.227Z,22999.04
2022-11-16T12:46:09.362Z,22999.04
2022-11-16T12:47:09.506Z,22999.04
2022-11-16T12:48:09.642Z,22999.04
2022-11-16T12:49:09.773Z,20193.28
2022-11-16T12:50:09.919Z,17991.68
2022-11-16T12:51:10.064Z,17991.68
2022-11-16T12:52:10.199Z,17991.68
2022-11-16T12:53:10.368Z,16199.68
2022-11-16T12:54:10.782Z,16199.68
2022-11-16T12:55:27.414Z,16199.68
2022-11-16T12:56:28.911Z,14397.44
2022-11-16T12:57:29.056Z,14397.44
2022-11-16T12:58:29.198Z,14397.44
2022-11-16T12:59:29.344Z,14397.44
2022-11-16T13:00:29.478Z,11397.12
2022-11-16T13:01:29.663Z,10199.04
2022-11-16T13:02:29.976Z,10199.04
2022-11-16T13:03:30.108Z,10199.04
2022-11-16T13:04:30.241Z,10199.04
2022-11-16T13:05:30.374Z,10199.04
2022-11-16T13:06:30.505Z,10199.04
2022-11-16T13:07:30.713Z,10199.04
2022-11-16T13:08:31.160Z,10199.04
2022-11-16T13:09:31.544Z,10199.04
2022-11-16T13:10:31.864Z,10199.04
2022-11-16T13:11:31.992Z,10598.4
2022-11-16T13:12:32.149Z,10598.4
2022-11-16T13:13:36.589Z,10598.4
2022-11-16T13:14:53.706Z,10199.04
2022-11-16T13:15:53.860Z,10199.04
2022-11-16T13:16:53.996Z,13199.36
2022-11-16T13:17:54.134Z,14796.8
2022-11-16T13:18:54.278Z,16599.04
2022-11-16T13:19:54.432Z,18391.04
2022-11-16T13:20:54.576Z,16394.24
2022-11-16T13:21:54.716Z,16394.24
2022-11-16T13:22:54.877Z,18391.04
2022-11-16T13:23:55.012Z,20797.44
2022-11-16T13:24:55.160Z,23388.16
2022-11-16T13:25:55.415Z,23388.16
2022-11-16T13:26:55.669Z,20992
2022-11-16T13:27:55.810Z,18595.84
2022-11-16T13:28:55.940Z,16394.24
2022-11-16T13:29:56.074Z,14397.44
2022-11-16T13:30:56.216Z,11192.32
2022-11-16T13:31:56.368Z,9917.44
2022-11-16T13:32:56.503Z,8919.04
2022-11-16T13:33:56.633Z,7997.44
2022-11-16T13:34:56.774Z,7997.44
2022-11-16T13:35:56.916Z,7178.24
2022-11-16T13:36:57.065Z,7178.24